Time;durP1;ratioP1;P1;durP2;ratioP2;P2;SDS_P1;SDS_P2;PMS_P1;PMS_P2;Temp;Humidity;BMP_temperature;BMP_pressure;BME280_temperature;BME280_humidity;BME280_pressure;Samples;Min_cycle;Max_cycle;Signal;HPM_P1;HPM_P2
2022/11/18 00:00:22;;;;;;;54.30;22.00;;;;;;;7.58;100.00;96774.25;2600930;28;20420;-81
2022/11/18 00:01:48;;;;;;;51.03;21.27;;;;;;;7.65;100.00;96773.06;2602258;28;20050;-81
2022/11/18 00:03:03;;;;;;;56.92;21.80;;;;;;;7.81;100.00;96767.19;2600973;28;20091;-82
2022/11/18 00:04:19;;;;;;;53.65;21.17;;;;;;;7.84;100.00;96759.25;2600502;28;20050;-85
2022/11/18 00:05:34;;;;;;;43.22;20.42;;;;;;;7.62;100.00;96757.56;2601000;28;20141;-82
2022/11/18 00:06:50;;;;;;;49.67;20.95;;;;;;;7.08;100.00;96750.28;2600571;28;20113;-82
2022/11/18 00:08:06;;;;;;;52.55;21.65;;;;;;;6.76;100.00;96744.63;2602633;28;20392;-82
2022/11/18 00:09:21;;;;;;;53.38;21.27;;;;;;;6.62;100.00;96740.81;2604913;28;20135;-83
2022/11/18 00:10:38;;;;;;;53.92;20.45;;;;;;;6.56;100.00;96727.22;2603553;28;20056;-83
2022/11/18 00:15:02;;;;;;;64.75;23.42;;;;;;;6.91;100.00;96740.53;2602165;28;20103;-88
2022/11/18 00:16:17;;;;;;;61.63;23.25;;;;;;;6.97;100.00;96747.25;2601359;28;20052;-83
2022/11/18 00:17:33;;;;;;;57.97;21.17;;;;;;;7.21;100.00;96746.25;2599611;28;20049;-82
2022/11/18 00:18:48;;;;;;;57.15;22.60;;;;;;;7.26;100.00;96740.84;2599520;28;20195;-83
2022/11/18 00:20:04;;;;;;;53.05;19.65;;;;;;;7.29;100.00;96745.91;2601177;28;20045;-82
2022/11/18 00:21:20;;;;;;;48.40;20.52;;;;;;;7.46;100.00;96757.38;2599624;28;20501;-86
2022/11/18 00:22:36;;;;;;;53.72;19.92;;;;;;;7.43;100.00;96755.75;2600173;28;20049;-86
2022/11/18 00:23:51;;;;;;;50.78;20.02;;;;;;;7.39;100.00;96755.97;2600353;28;20044;-84
2022/11/18 00:25:07;;;;;;;49.00;19.80;;;;;;;7.71;100.00;96753.72;2599942;28;20053;-82
2022/11/18 00:26:23;;;;;;;45.13;19.35;;;;;;;7.76;100.00;96746.56;2601802;28;20149;-82
2022/11/18 00:27:38;;;;;;;48.78;19.73;;;;;;;7.72;100.00;96740.63;2601525;28;20123;-82
2022/11/18 00:28:54;;;;;;;48.70;18.52;;;;;;;7.10;100.00;96737.22;2601344;28;20057;-83
2022/11/18 00:30:10;;;;;;;50.08;19.65;;;;;;;6.90;100.00;96720.63;2602421;28;20049;-82
2022/11/18 00:31:26;;;;;;;54.78;21.65;;;;;;;7.11;100.00;96723.28;2600740;28;20061;-87
2022/11/18 00:32:41;;;;;;;53.92;21.40;;;;;;;7.37;100.00;96735.19;2600621;28;20496;-82
2022/11/18 00:33:57;;;;;;;55.65;22.23;;;;;;;7.19;100.00;96732.47;2599809;28;20053;-83
2022/11/18 00:35:13;;;;;;;54.90;20.75;;;;;;;7.35;100.00;96743.06;2599220;28;20046;-83
2022/11/18 00:36:29;;;;;;;53.15;21.13;;;;;;;7.33;100.00;96737.09;2600062;28;20048;-83
2022/11/18 00:37:44;;;;;;;49.20;20.52;;;;;;;7.60;100.00;96743.78;2601099;28;20057;-83
2022/11/18 00:39:00;;;;;;;51.05;20.67;;;;;;;7.72;100.00;96737.16;2601344;28;20113;-82
2022/11/18 00:40:16;;;;;;;47.08;20.25;;;;;;;7.66;100.00;96735.69;2601461;28;20595;-82
2022/11/18 00:43:06;;;;;;;50.85;20.92;;;;;;;7.89;100.00;96732.09;2600123;28;20052;-87
2022/11/18 00:44:22;;;;;;;47.20;19.42;;;;;;;7.85;100.00;96730.50;2601847;28;20416;-84
2022/11/18 00:45:37;;;;;;;48.63;21.45;;;;;;;7.80;100.00;96735.09;2599839;28;20049;-83
2022/11/18 00:46:53;;;;;;;49.63;21.15;;;;;;;7.92;100.00;96738.91;2602070;28;20106;-86
2022/11/18 00:48:09;;;;;;;46.63;20.27;;;;;;;7.92;100.00;96741.50;2601218;28;20492;-82
2022/11/18 00:49:24;;;;;;;46.42;21.70;;;;;;;7.88;100.00;96746.00;2600493;28;20049;-83
2022/11/18 00:50:40;;;;;;;46.25;19.77;;;;;;;7.99;100.00;96742.06;2601178;28;20057;-82
2022/11/18 00:51:56;;;;;;;44.10;19.83;;;;;;;7.88;100.00;96745.16;2599400;28;20104;-82
2022/11/18 00:53:11;;;;;;;37.45;17.63;;;;;;;7.85;100.00;96740.94;2599324;28;20056;-85
2022/11/18 00:54:27;;;;;;;38.47;18.65;;;;;;;7.54;100.00;96749.22;2600439;28;20060;-84
2022/11/18 00:55:43;;;;;;;40.55;18.15;;;;;;;7.26;100.00;96740.00;2600116;28;20053;-83
2022/11/18 00:56:59;;;;;;;44.83;19.42;;;;;;;7.47;100.00;96746.91;2598784;28;20057;-83
2022/11/18 00:58:14;;;;;;;47.45;19.17;;;;;;;7.73;100.00;96750.13;2601456;28;20045;-82
2022/11/18 00:59:30;;;;;;;44.88;19.20;;;;;;;7.84;100.00;96746.22;2601178;28;20059;-82
2022/11/18 01:00:51;;;;;;;46.28;19.08;;;;;;;7.84;100.00;96743.63;2600787;28;20521;-81
2022/11/18 01:02:06;;;;;;;42.70;18.63;;;;;;;7.90;100.00;96752.00;2600392;28;20695;-83
2022/11/18 01:03:24;;;;;;;44.10;19.52;;;;;;;7.94;100.00;96742.28;2598950;28;20068;-82
2022/11/18 01:04:39;;;;;;;40.00;18.33;;;;;;;7.97;100.00;96747.38;2601950;28;20613;-82
2022/11/18 01:05:55;;;;;;;40.10;17.67;;;;;;;7.85;100.00;96745.31;2601216;28;20124;-82
2022/11/18 01:07:11;;;;;;;40.78;18.65;;;;;;;7.96;100.00;96753.50;2600428;28;20064;-83
2022/11/18 01:08:26;;;;;;;39.42;17.83;;;;;;;7.93;100.00;96743.19;2598826;28;20053;-83
2022/11/18 01:09:42;;;;;;;45.22;19.20;;;;;;;7.88;100.00;96745.16;2600985;28;20044;-81
2022/11/18 01:13:17;;;;;;;39.47;18.60;;;;;;;7.87;100.00;96743.47;2599138;28;20046;-82
2022/11/18 01:14:08;;;;;;;41.85;18.30;;;;;;;7.72;100.00;96745.84;2601691;28;20045;-88
2022/11/18 01:15:24;;;;;;;43.03;18.13;;;;;;;7.53;100.00;96744.94;2601806;28;20496;-85
2022/11/18 01:16:39;;;;;;;44.60;19.58;;;;;;;7.73;100.00;96744.94;2600263;28;20546;-83
2022/11/18 01:17:55;;;;;;;49.63;20.13;;;;;;;7.84;100.00;96746.22;2600593;28;20050;-83
2022/11/18 01:19:11;;;;;;;43.47;18.55;;;;;;;7.87;100.00;96738.25;2599613;28;20056;-87
2022/11/18 01:20:26;;;;;;;43.42;20.27;;;;;;;7.89;100.00;96736.44;2600980;28;20045;-82
2022/11/18 01:21:42;;;;;;;44.40;18.42;;;;;;;7.85;100.00;96737.50;2600880;28;20054;-83
2022/11/18 01:22:58;;;;;;;44.92;18.90;;;;;;;7.85;100.00;96735.72;2599887;28;20050;-82
2022/11/18 01:24:13;;;;;;;40.60;18.65;;;;;;;7.58;100.00;96733.41;2602417;28;20094;-82
2022/11/18 01:25:29;;;;;;;44.55;19.05;;;;;;;7.62;100.00;96726.31;2601091;28;20041;-82
2022/11/18 01:26:45;;;;;;;39.38;17.60;;;;;;;7.47;100.00;96726.06;2602416;28;20484;-82
2022/11/18 01:28:01;;;;;;;42.60;18.88;;;;;;;7.41;100.00;96721.16;2602028;28;20137;-82
2022/11/18 01:29:16;;;;;;;42.42;18.33;;;;;;;7.47;100.00;96720.88;2603591;28;20044;-84
2022/11/18 01:30:33;;;;;;;40.35;18.33;;;;;;;7.31;100.00;96717.22;2601339;28;20045;-83
2022/11/18 01:31:49;;;;;;;44.25;20.23;;;;;;;7.28;100.00;96709.56;2600790;28;20080;-84
2022/11/18 01:33:06;;;;;;;45.78;18.58;;;;;;;7.57;100.00;96710.06;2600803;28;20132;-85
2022/11/18 01:34:21;;;;;;;41.38;18.25;;;;;;;7.58;100.00;96707.38;2602879;28;20071;-81
2022/11/18 01:35:39;;;;;;;42.28;19.35;;;;;;;7.61;100.00;96709.00;2601090;28;20060;-82
2022/11/18 01:36:56;;;;;;;43.17;17.83;;;;;;;7.67;100.00;96713.09;2602122;28;20397;-83
2022/11/18 01:38:14;;;;;;;39.05;17.90;;;;;;;7.54;100.00;96711.03;2601666;28;20147;-88
2022/11/18 01:39:30;;;;;;;39.17;18.65;;;;;;;7.50;100.00;96709.47;2603806;28;20152;-82
2022/11/18 01:40:45;;;;;;;46.33;19.25;;;;;;;7.40;100.00;96701.19;2602759;28;21036;-82
2022/11/18 01:42:01;;;;;;;43.13;18.10;;;;;;;7.37;100.00;96703.94;2602918;28;20056;-81
2022/11/18 01:43:19;;;;;;;43.13;18.35;;;;;;;7.44;100.00;96705.38;2601515;28;20072;-83
2022/11/18 01:45:14;;;;;;;36.95;17.15;;;;;;;7.63;100.00;96704.56;2602672;28;20099;-87
2022/11/18 01:46:32;;;;;;;37.47;16.20;;;;;;;7.49;100.00;96692.16;2602275;28;20052;-82
2022/11/18 01:47:54;;;;;;;41.13;17.50;;;;;;;7.43;100.00;96695.88;2600741;28;20111;-82
2022/11/18 01:49:13;;;;;;;36.92;17.20;;;;;;;7.30;100.00;96692.94;2603680;28;20164;-85
2022/11/18 01:50:29;;;;;;;36.80;16.83;;;;;;;7.07;100.00;96694.78;2602390;28;20995;-82
2022/11/18 01:51:50;;;;;;;37.05;16.38;;;;;;;7.01;100.00;96683.78;2602047;28;20060;-82
2022/11/18 01:53:16;;;;;;;35.88;16.77;;;;;;;7.00;100.00;96685.53;2603655;28;20844;-82
2022/11/18 01:54:39;;;;;;;41.92;16.85;;;;;;;6.85;100.00;96675.78;2601200;28;20571;-82
2022/11/18 01:55:58;;;;;;;39.20;17.23;;;;;;;6.71;100.00;96674.59;2602461;28;20050;-82
2022/11/18 01:57:19;;;;;;;38.75;17.67;;;;;;;6.70;100.00;96677.25;2600555;28;20045;-82
2022/11/18 01:58:38;;;;;;;38.92;17.38;;;;;;;6.78;100.00;96673.44;2601455;28;20459;-82
2022/11/18 01:59:57;;;;;;;41.28;17.67;;;;;;;6.87;100.00;96680.00;2602688;28;20132;-82
2022/11/18 02:01:13;;;;;;;45.42;18.20;;;;;;;6.96;100.00;96685.72;2602910;28;20041;-82
2022/11/18 02:02:34;;;;;;;41.60;17.65;;;;;;;6.92;100.00;96688.47;2602129;28;20375;-85
2022/11/18 02:03:50;;;;;;;39.63;17.13;;;;;;;6.73;100.00;96688.38;2602056;28;20045;-83
2022/11/18 02:05:09;;;;;;;40.03;17.92;;;;;;;6.74;100.00;96694.44;2600787;28;20052;-82
2022/11/18 02:06:25;;;;;;;43.47;17.58;;;;;;;6.86;100.00;96688.72;2600922;28;20104;-82
2022/11/18 02:07:42;;;;;;;39.47;18.13;;;;;;;6.71;100.00;96695.41;2603598;28;20075;-81
2022/11/18 02:08:58;;;;;;;42.45;17.67;;;;;;;6.69;100.00;96692.00;2602825;28;20049;-82
2022/11/18 02:10:20;;;;;;;39.15;17.27;;;;;;;6.87;100.00;96695.63;2602965;28;20511;-82
2022/11/18 02:11:53;;;;;;;42.63;16.73;;;;;;;6.90;100.00;96694.63;2603610;28;20063;-82
2022/11/18 02:13:08;;;;;;;35.35;15.43;;;;;;;6.90;100.00;96692.03;2602572;28;20058;-83
2022/11/18 02:14:30;;;;;;;37.17;15.77;;;;;;;6.62;100.00;96688.81;2602446;28;20048;-82
2022/11/18 02:16:18;;;;;;;36.90;16.02;;;;;;;6.38;100.00;96688.03;2601087;28;20053;-82
2022/11/18 02:17:51;;;;;;;39.67;18.17;;;;;;;6.39;100.00;96684.53;2601989;28;20424;-81
2022/11/18 02:19:45;;;;;;;40.53;16.42;;;;;;;6.35;100.00;96681.22;2602210;28;20847;-86
2022/11/18 02:21:18;;;;;;;33.55;14.93;;;;;;;6.19;100.00;96690.50;2602405;28;20510;-84
2022/11/18 02:23:05;;;;;;;38.75;15.77;;;;;;;6.28;100.00;96699.69;2601246;28;20048;-82
2022/11/18 02:24:23;;;;;;;33.35;15.48;;;;;;;6.18;100.00;96689.66;2600360;28;20132;-82
2022/11/18 02:26:01;;;;;;;31.58;14.88;;;;;;;6.27;100.00;96687.63;2600188;28;20073;-81
2022/11/18 02:27:44;;;;;;;36.47;16.15;;;;;;;6.21;100.00;96694.72;2601970;28;20076;-82
2022/11/18 02:29:06;;;;;;;;;;;;;;;6.24;100.00;96690.34;2602254;28;20061;-82
2022/11/18 02:30:22;;;;;;;31.90;14.57;;;;;;;6.22;100.00;96687.78;2600963;28;20125;-81
2022/11/18 02:31:51;;;;;;;31.70;14.23;;;;;;;6.26;100.00;96693.72;2601825;28;20092;-81
2022/11/18 02:33:11;;;;;;;35.38;15.10;;;;;;;6.05;100.00;96689.28;2602057;28;20722;-80
2022/11/18 02:34:48;;;;;;;38.30;16.65;;;;;;;6.16;100.00;96694.06;2602215;28;20057;-83
2022/11/18 02:36:36;;;;;;;34.10;15.25;;;;;;;6.21;100.00;96694.72;2601315;28;20049;-82
2022/11/18 02:38:04;;;;;;;31.58;14.23;;;;;;;6.11;100.00;96690.81;2596192;28;20996;-81
2022/11/18 02:39:46;;;;;;;29.60;13.95;;;;;;;6.09;100.00;96684.84;2602498;28;20060;-82
2022/11/18 02:41:08;;;;;;;34.70;14.35;;;;;;;6.15;100.00;96694.16;2602202;28;20072;-81
2022/11/18 02:42:28;;;;;;;32.13;15.05;;;;;;;5.85;100.00;96690.00;2600387;28;20439;-81
2022/11/18 02:43:52;;;;;;;31.90;13.90;;;;;;;6.11;100.00;96693.41;2600048;28;20053;-84
2022/11/18 02:45:14;;;;;;;33.15;14.35;;;;;;;5.92;100.00;96695.81;2600057;28;20059;-81
2022/11/18 02:46:33;;;;;;;33.15;14.73;;;;;;;5.98;100.00;96694.75;2601654;28;20052;-87
2022/11/18 02:47:50;;;;;;;30.25;14.23;;;;;;;5.86;100.00;96693.44;2600671;28;20682;-82
2022/11/18 02:49:11;;;;;;;31.77;15.18;;;;;;;5.91;100.00;96694.97;2600000;28;20168;-81
2022/11/18 02:50:28;;;;;;;33.92;14.32;;;;;;;5.82;100.00;96690.13;2600276;28;20072;-83
2022/11/18 02:51:46;;;;;;;28.63;13.50;;;;;;;5.81;100.00;96693.63;2600912;28;20076;-84
2022/11/18 02:53:05;;;;;;;31.02;13.93;;;;;;;5.73;100.00;96693.91;2601947;28;20151;-82
2022/11/18 02:54:22;;;;;;;28.42;13.30;;;;;;;5.74;100.00;96692.16;2601098;28;20072;-82
2022/11/18 02:55:39;;;;;;;34.42;14.45;;;;;;;5.75;100.00;96689.50;2601506;28;20052;-82
2022/11/18 02:56:56;;;;;;;35.95;15.60;;;;;;;5.79;100.00;96687.63;2600211;28;20415;-82
2022/11/18 02:58:15;;;;;;;31.67;14.23;;;;;;;5.91;100.00;96686.34;2602854;28;20049;-82
2022/11/18 02:59:31;;;;;;;29.77;13.65;;;;;;;5.78;100.00;96685.94;2601067;28;20155;-82
2022/11/18 03:00:58;;;;;;;32.83;14.00;;;;;;;5.82;100.00;96690.13;2600401;28;20049;-82
2022/11/18 03:02:18;;;;;;;27.73;13.43;;;;;;;5.75;100.00;96696.44;2601536;28;20429;-83
2022/11/18 03:03:35;;;;;;;27.98;12.45;;;;;;;5.68;100.00;96697.59;2600796;28;20045;-82
2022/11/18 03:04:56;;;;;;;29.33;12.52;;;;;;;5.83;100.00;96693.56;2602806;28;20095;-85
2022/11/18 03:06:33;;;;;;;30.45;13.60;;;;;;;5.60;100.00;96690.91;2602750;28;20060;-82
2022/11/18 03:07:59;;;;;;;29.45;13.05;;;;;;;5.76;100.00;96691.19;2602134;28;20055;-81
2022/11/18 03:09:14;;;;;;;30.27;12.93;;;;;;;5.80;100.00;96692.78;2601088;28;20037;-82
2022/11/18 03:10:38;;;;;;;28.42;12.63;;;;;;;5.62;100.00;96689.09;2600285;28;20060;-83
2022/11/18 03:12:10;;;;;;;32.75;13.73;;;;;;;5.62;100.00;96690.88;2602726;28;20666;-80
2022/11/18 03:13:34;;;;;;;30.13;13.60;;;;;;;5.58;100.00;96697.03;2600975;28;20083;-81
2022/11/18 03:15:11;;;;;;;33.70;13.35;;;;;;;5.59;100.00;96697.00;2600297;28;20060;-80
2022/11/18 03:16:34;;;;;;;31.15;12.63;;;;;;;5.67;100.00;96691.53;2603194;28;20053;-81
2022/11/18 03:18:05;;;;;;;26.48;10.93;;;;;;;5.41;100.00;96693.31;2599810;28;20394;-82
2022/11/18 03:19:53;;;;;;;32.80;13.63;;;;;;;5.54;100.00;96693.72;2601608;28;20842;-81
2022/11/18 03:21:42;;;;;;;30.23;12.65;;;;;;;5.65;100.00;96693.34;2599340;28;20056;-85
2022/11/18 03:23:23;;;;;;;29.63;13.05;;;;;;;5.70;100.00;96695.78;2599983;28;20045;-84
2022/11/18 03:24:44;;;;;;;26.88;12.20;;;;;;;5.64;100.00;96684.69;2602779;28;20072;-83
2022/11/18 03:26:23;;;;;;;31.73;12.40;;;;;;;5.51;100.00;96686.91;2600537;28;20451;-82
2022/11/18 03:27:59;;;;;;;36.15;13.55;;;;;;;5.65;100.00;96678.59;2600748;28;20130;-82
2022/11/18 03:29:17;;;;;;;35.67;13.60;;;;;;;5.84;100.00;96679.66;2602374;28;20480;-83
2022/11/18 03:30:38;;;;;;;27.27;12.13;;;;;;;5.76;100.00;96678.22;2600880;28;20415;-81
2022/11/18 03:32:04;;;;;;;30.23;12.80;;;;;;;5.82;100.00;96674.56;2600809;28;20056;-81
2022/11/18 03:33:26;;;;;;;31.10;13.52;;;;;;;5.83;100.00;96672.78;2600572;28;20280;-82
2022/11/18 03:34:48;;;;;;;33.05;13.95;;;;;;;5.75;100.00;96671.34;2602594;28;20461;-81
2022/11/18 03:36:07;;;;;;;30.33;12.50;;;;;;;5.47;100.00;96672.34;2599561;28;20163;-81
2022/11/18 03:37:25;;;;;;;31.00;12.27;;;;;;;5.53;100.00;96676.47;2600775;28;20061;-81
2022/11/18 03:38:46;;;;;;;28.50;12.52;;;;;;;5.45;100.00;96673.28;2602723;28;20097;-81
2022/11/18 03:40:12;;;;;;;27.10;11.35;;;;;;;5.61;100.00;96668.41;2599614;28;20725;-81
2022/11/18 03:41:31;;;;;;;26.80;11.93;;;;;;;5.72;100.00;96680.97;2600879;28;20072;-82
2022/11/18 03:42:52;;;;;;;30.55;13.00;;;;;;;5.68;100.00;96676.81;2600856;28;20171;-81
2022/11/18 03:44:17;;;;;;;28.95;12.68;;;;;;;5.51;100.00;96686.91;2600135;28;20110;-82
2022/11/18 03:45:36;;;;;;;31.73;13.30;;;;;;;5.60;100.00;96685.72;2600627;28;20522;-82
2022/11/18 03:47:35;;;;;;;26.90;11.30;;;;;;;5.56;100.00;96686.75;2601674;28;20111;-82
2022/11/18 03:48:53;;;;;;;26.52;11.63;;;;;;;5.41;100.00;96690.72;2601025;28;20451;-81
2022/11/18 03:50:20;;;;;;;24.02;11.18;;;;;;;5.42;100.00;96688.97;2602622;28;20103;-82
2022/11/18 03:51:46;;;;;;;21.17;10.13;;;;;;;5.35;100.00;96685.75;2601158;28;20087;-82
2022/11/18 03:53:02;;;;;;;26.75;11.27;;;;;;;5.30;100.00;96691.09;2601134;28;20502;-82
2022/11/18 03:54:23;;;;;;;20.30;9.27;;;;;;;5.25;100.00;96690.44;2600015;28;20960;-81
2022/11/18 03:55:43;;;;;;;26.20;11.50;;;;;;;5.28;100.00;96689.44;2601612;28;20049;-81
2022/11/18 03:57:05;;;;;;;29.17;12.07;;;;;;;5.48;100.00;96692.22;2600798;28;20053;-84
2022/11/18 03:58:29;;;;;;;25.95;10.70;;;;;;;5.37;100.00;96694.31;2600475;28;20141;-87
2022/11/18 04:00:10;;;;;;;26.05;11.88;;;;;;;5.49;100.00;96683.50;2600359;28;20459;-83
2022/11/18 04:01:47;;;;;;;26.30;11.65;;;;;;;5.60;100.00;96695.28;2599625;28;20053;-81
2022/11/18 04:03:03;;;;;;;28.30;11.52;;;;;;;5.59;100.00;96685.78;2600452;28;20048;-87
2022/11/18 04:04:19;;;;;;;29.15;11.20;;;;;;;5.55;100.00;96689.38;2602357;28;20060;-81
2022/11/18 04:05:40;;;;;;;30.65;12.07;;;;;;;5.36;100.00;96682.25;2599994;28;20053;-81
2022/11/18 04:07:16;;;;;;;26.75;12.38;;;;;;;5.47;100.00;96682.72;2599759;28;20100;-82
2022/11/18 04:08:37;;;;;;;27.02;11.70;;;;;;;5.26;100.00;96684.34;2601754;28;20096;-81
2022/11/18 04:09:57;;;;;;;26.38;11.73;;;;;;;5.53;100.00;96680.81;2600128;28;20500;-82
2022/11/18 04:13:08;;;;;;;27.90;11.52;;;;;;;5.49;100.00;96686.09;2601441;28;20134;-81
2022/11/18 04:14:24;;;;;;;22.08;10.15;;;;;;;5.67;100.00;96685.50;2599551;28;20048;-81
2022/11/18 04:15:41;;;;;;;25.88;11.55;;;;;;;5.68;100.00;96682.84;2600504;28;20393;-82
2022/11/18 04:16:57;;;;;;;23.40;11.20;;;;;;;5.62;100.00;96681.31;2599731;28;20059;-85
2022/11/18 04:18:12;;;;;;;26.40;11.00;;;;;;;5.83;100.00;96685.75;2601220;28;20049;-81
2022/11/18 04:19:28;;;;;;;25.92;11.35;;;;;;;5.84;100.00;96684.84;2601508;28;20049;-82
2022/11/18 04:20:44;;;;;;;24.10;11.07;;;;;;;5.74;100.00;96684.38;2600695;28;20041;-83
2022/11/18 04:21:59;;;;;;;25.25;11.07;;;;;;;5.67;100.00;96688.09;2599662;28;20444;-82
2022/11/18 04:23:15;;;;;;;23.70;10.65;;;;;;;5.74;100.00;96682.63;2599845;28;20558;-81
2022/11/18 04:24:31;;;;;;;27.10;11.30;;;;;;;5.98;100.00;96690.38;2600524;28;20048;-81
2022/11/18 04:25:46;;;;;;;20.67;10.65;;;;;;;6.06;100.00;96693.56;2601917;28;20075;-82
2022/11/18 04:27:03;;;;;;;21.95;10.27;;;;;;;6.08;100.00;96696.13;2600553;28;20048;-88
2022/11/18 04:28:18;;;;;;;21.98;10.90;;;;;;;5.82;100.00;96697.06;2599688;28;20061;-81
2022/11/18 04:29:34;;;;;;;24.17;11.02;;;;;;;5.97;100.00;96704.28;2600981;28;20393;-82
2022/11/18 04:30:50;;;;;;;26.15;11.43;;;;;;;5.94;100.00;96705.25;2601124;28;20102;-82
2022/11/18 04:32:05;;;;;;;21.95;10.68;;;;;;;5.87;100.00;96705.53;2601005;28;20052;-81
2022/11/18 04:33:21;;;;;;;22.25;10.02;;;;;;;5.97;100.00;96709.47;2599380;28;20077;-81
2022/11/18 04:34:37;;;;;;;21.88;10.60;;;;;;;5.98;100.00;96713.75;2602576;28;20068;-81
2022/11/18 04:35:52;;;;;;;20.58;10.45;;;;;;;6.19;100.00;96714.72;2599890;28;20059;-82
2022/11/18 04:37:08;;;;;;;20.05;9.80;;;;;;;6.30;100.00;96711.75;2601177;28;20056;-81
2022/11/18 04:38:23;;;;;;;19.85;9.48;;;;;;;6.18;100.00;96709.63;2599394;28;20064;-83
2022/11/18 04:39:39;;;;;;;17.45;9.20;;;;;;;6.26;100.00;96710.16;2599794;28;20080;-85
2022/11/18 04:40:55;;;;;;;16.95;9.23;;;;;;;6.29;100.00;96715.25;2600294;28;20060;-82
2022/11/18 04:42:10;;;;;;;17.70;8.70;;;;;;;6.16;100.00;96709.66;2599787;28;20057;-82
2022/11/18 04:43:26;;;;;;;15.82;8.25;;;;;;;6.38;100.00;96716.63;2600038;28;20073;-82
2022/11/18 04:44:41;;;;;;;16.40;8.40;;;;;;;6.32;100.00;96717.72;2600722;28;20283;-82
2022/11/18 04:45:57;;;;;;;13.02;7.30;;;;;;;6.49;100.00;96713.63;2599919;28;20131;-82
2022/11/18 04:47:13;;;;;;;15.18;8.00;;;;;;;5.97;100.00;96713.84;2599071;28;20053;-82
2022/11/18 04:48:28;;;;;;;16.98;8.98;;;;;;;6.05;100.00;96712.66;2601104;28;20172;-82
2022/11/18 04:49:44;;;;;;;15.82;8.35;;;;;;;5.75;100.00;96719.81;2599155;28;20110;-83
2022/11/18 04:51:05;;;;;;;18.73;8.48;;;;;;;5.94;100.00;96715.66;2599975;28;20059;-83
2022/11/18 04:52:21;;;;;;;17.85;8.90;;;;;;;6.06;100.00;96724.75;2599163;28;20143;-83
2022/11/18 04:53:36;;;;;;;18.55;9.25;;;;;;;6.02;100.00;96723.19;2600051;28;20514;-81
2022/11/18 04:54:52;;;;;;;15.98;8.48;;;;;;;6.02;100.00;96720.59;2599712;28;20553;-82
2022/11/18 04:56:08;;;;;;;17.45;8.70;;;;;;;6.03;100.00;96722.28;2600255;28;20053;-83
2022/11/18 04:57:23;;;;;;;17.63;8.70;;;;;;;5.98;100.00;96724.16;2601564;28;20045;-82
2022/11/18 04:58:39;;;;;;;17.50;9.02;;;;;;;6.10;100.00;96722.91;2601233;28;20156;-82
2022/11/18 04:59:54;;;;;;;14.98;8.23;;;;;;;6.16;100.00;96727.84;2602355;28;20045;-83
2022/11/18 05:01:10;;;;;;;15.68;7.95;;;;;;;6.13;100.00;96722.78;2600975;28;20148;-82
2022/11/18 05:02:26;;;;;;;15.18;7.82;;;;;;;6.15;100.00;96722.72;2602805;28;20052;-82
2022/11/18 05:03:41;;;;;;;16.02;8.30;;;;;;;6.36;100.00;96715.84;2600945;28;20057;-82
2022/11/18 05:04:57;;;;;;;14.10;7.50;;;;;;;6.35;100.00;96712.41;2601158;28;20041;-83
2022/11/18 05:06:13;;;;;;;14.50;7.53;;;;;;;6.43;100.00;96712.09;2601485;28;20049;-83
2022/11/18 05:07:28;;;;;;;15.15;8.32;;;;;;;6.55;100.00;96715.94;2604004;28;20049;-85
2022/11/18 05:08:44;;;;;;;15.25;8.02;;;;;;;6.52;100.00;96710.88;2603632;28;20183;-83
2022/11/18 05:09:59;;;;;;;15.20;8.52;;;;;;;6.59;100.00;96706.28;2602651;28;20056;-83
2022/11/18 05:12:49;;;;;;;15.95;8.30;;;;;;;6.60;100.00;96711.44;2602033;28;20052;-85
2022/11/18 05:14:05;;;;;;;13.95;7.95;;;;;;;6.57;100.00;96713.31;2602944;28;20045;-81
2022/11/18 05:15:22;;;;;;;15.68;7.93;;;;;;;6.60;100.00;96710.56;2602347;28;20053;-82
2022/11/18 05:16:38;;;;;;;15.80;8.10;;;;;;;6.50;100.00;96712.69;2602146;28;20184;-85
2022/11/18 05:17:54;;;;;;;14.88;8.23;;;;;;;6.62;100.00;96712.22;2603686;28;20130;-83
2022/11/18 05:19:09;;;;;;;16.48;8.77;;;;;;;6.44;100.00;96707.75;2602258;28;20053;-83
2022/11/18 05:20:25;;;;;;;18.90;9.27;;;;;;;6.29;100.00;96710.06;2601178;28;20054;-82
2022/11/18 05:21:41;;;;;;;15.20;8.07;;;;;;;6.45;100.00;96706.84;2602516;28;20061;-82
2022/11/18 05:22:56;;;;;;;15.88;8.43;;;;;;;6.48;100.00;96712.75;2601684;28;20053;-82
2022/11/18 05:24:12;;;;;;;15.65;8.45;;;;;;;6.45;100.00;96714.66;2602017;28;20530;-82
2022/11/18 05:25:28;;;;;;;15.07;7.95;;;;;;;6.50;100.00;96721.34;2603389;28;20694;-83
2022/11/18 05:26:43;;;;;;;13.60;7.78;;;;;;;6.35;100.00;96717.59;2601061;28;20079;-82
2022/11/18 05:27:59;;;;;;;16.92;7.97;;;;;;;6.15;100.00;96722.72;2604052;28;20052;-83
2022/11/18 05:29:16;;;;;;;15.60;8.45;;;;;;;6.21;100.00;96712.91;2602894;28;20742;-83
2022/11/18 05:30:32;;;;;;;19.50;8.68;;;;;;;6.35;100.00;96724.53;2600951;28;20156;-86
2022/11/18 05:31:48;;;;;;;13.65;7.93;;;;;;;6.45;100.00;96717.25;2602749;28;20075;-82
2022/11/18 05:33:03;;;;;;;16.23;7.50;;;;;;;6.22;100.00;96725.03;2606577;28;20055;-88
2022/11/18 05:34:19;;;;;;;16.15;8.35;;;;;;;6.11;100.00;96719.38;2604994;28;20053;-83
2022/11/18 05:35:36;;;;;;;16.17;7.70;;;;;;;6.05;100.00;96722.19;2601193;28;20041;-83
2022/11/18 05:36:51;;;;;;;17.15;8.57;;;;;;;5.74;100.00;96723.31;2597645;28;20119;-82
2022/11/18 05:38:07;;;;;;;15.57;8.85;;;;;;;5.74;100.00;96723.31;2600778;28;20132;-84
2022/11/18 05:39:22;;;;;;;17.20;8.55;;;;;;;5.70;100.00;96725.16;2600837;28;20566;-82
2022/11/18 05:40:40;;;;;;;18.85;8.65;;;;;;;5.77;100.00;96721.47;2601463;28;20048;-82
2022/11/18 05:43:31;;;;;;;16.88;8.43;;;;;;;5.71;100.00;96723.44;2603261;28;20045;-81
2022/11/18 05:44:47;;;;;;;15.55;8.68;;;;;;;5.73;100.00;96721.63;2602169;28;20415;-82
2022/11/18 05:46:03;;;;;;;17.20;8.13;;;;;;;5.77;100.00;96718.84;2602772;28;20049;-83
2022/11/18 05:47:19;;;;;;;18.00;8.68;;;;;;;5.73;100.00;96719.03;2600998;28;20136;-82
2022/11/18 05:48:34;;;;;;;17.38;9.30;;;;;;;5.54;100.00;96717.09;2602095;28;20101;-82
2022/11/18 05:49:50;;;;;;;20.05;8.95;;;;;;;5.78;100.00;96715.34;2600731;28;20049;-83
2022/11/18 05:51:06;;;;;;;19.23;8.98;;;;;;;5.74;100.00;96713.78;2601728;28;20050;-84
2022/11/18 05:52:21;;;;;;;21.70;8.85;;;;;;;5.74;100.00;96718.97;2603001;28;20053;-84
2022/11/18 05:53:37;;;;;;;18.55;9.13;;;;;;;5.82;100.00;96712.63;2601677;28;20053;-82
2022/11/18 05:54:52;;;;;;;18.63;9.38;;;;;;;5.78;100.00;96712.75;2601126;28;20053;-84
2022/11/18 05:56:39;;;;;;;16.73;8.45;;;;;;;5.82;100.00;96721.28;2602240;28;20487;-83
2022/11/18 05:57:55;;;;;;;18.42;8.80;;;;;;;6.00;100.00;96714.53;2601099;28;20136;-85
2022/11/18 05:59:11;;;;;;;20.65;9.10;;;;;;;6.12;100.00;96718.47;2602491;28;20057;-84
2022/11/18 06:00:28;;;;;;;16.80;8.57;;;;;;;6.04;100.00;96713.56;2602590;28;20487;-82
2022/11/18 06:01:48;;;;;;;20.02;8.80;;;;;;;5.92;100.00;96720.03;2601397;28;20100;-87
2022/11/18 06:03:11;;;;;;;15.80;8.20;;;;;;;5.90;100.00;96727.03;2601267;28;20139;-83
2022/11/18 06:04:44;;;;;;;20.27;9.18;;;;;;;6.05;100.00;96723.06;2602776;28;20871;-82
2022/11/18 06:06:03;;;;;;;17.90;8.63;;;;;;;5.97;100.00;96730.25;2602848;28;20480;-82
2022/11/18 06:07:24;;;;;;;19.92;9.32;;;;;;;6.12;100.00;96728.00;2601619;28;20159;-86
2022/11/18 06:08:44;;;;;;;17.35;8.85;;;;;;;6.29;100.00;96729.97;2610318;28;20060;-85
2022/11/18 06:10:01;;;;;;;19.45;8.68;;;;;;;6.35;100.00;96720.19;2606672;28;20455;-82
2022/11/18 06:11:18;;;;;;;16.52;8.45;;;;;;;6.46;100.00;96717.16;2600483;28;20540;-82
2022/11/18 06:12:38;;;;;;;16.23;8.30;;;;;;;6.43;100.00;96732.88;2600651;28;20134;-82
2022/11/18 06:14:01;;;;;;;16.58;8.13;;;;;;;6.27;100.00;96734.41;2602526;28;20132;-84
2022/11/18 06:15:27;;;;;;;14.02;7.50;;;;;;;6.39;100.00;96733.94;2611188;28;20388;-83
2022/11/18 06:16:48;;;;;;;14.18;8.15;;;;;;;6.27;100.00;96731.78;2606011;28;20057;-83
2022/11/18 06:18:15;;;;;;;15.25;7.88;;;;;;;6.34;100.00;96734.09;2602388;28;20100;-82
2022/11/18 06:19:32;;;;;;;16.30;8.18;;;;;;;6.25;100.00;96733.63;2603608;28;20160;-85